createdAt,value
2018-02-19T00:00:48.784Z,67.20
2018-02-19T00:03:17.056Z,66.40
2018-02-19T00:05:45.344Z,66.10
2018-02-19T00:08:12.839Z,66.10
2018-02-19T00:10:40.361Z,66.80
2018-02-19T00:13:07.858Z,67.10
2018-02-19T00:15:35.384Z,67.60
2018-02-19T00:18:02.929Z,67.60
2018-02-19T00:20:30.433Z,68.00
2018-02-19T00:22:57.964Z,68.20
2018-02-19T00:25:25.516Z,68.20
2018-02-19T00:27:53.802Z,68.30
2018-02-19T00:30:21.317Z,68.30
2018-02-19T00:32:49.623Z,69.10
2018-02-19T00:35:17.121Z,68.30
2018-02-19T00:37:44.672Z,68.30
2018-02-19T00:40:12.192Z,68.60
2018-02-19T00:42:39.715Z,68.50
2018-02-19T00:45:07.256Z,68.60
2018-02-19T00:47:34.758Z,68.70
2018-02-19T00:50:02.311Z,69.10
2018-02-19T00:52:30.579Z,69.50
2018-02-19T00:54:58.110Z,69.40
2018-02-19T00:57:25.628Z,69.60
2018-02-19T00:59:53.128Z,70.00
2018-02-19T01:02:20.653Z,70.20
2018-02-19T01:04:48.168Z,69.70
2018-02-19T01:07:16.476Z,68.60
2018-02-19T01:09:43.973Z,68.50
2018-02-19T01:12:11.497Z,68.10
2018-02-19T01:14:38.991Z,68.00
2018-02-19T01:17:06.540Z,68.00
2018-02-19T01:19:34.072Z,67.70
2018-02-19T01:22:01.568Z,67.20
2018-02-19T01:24:29.099Z,67.00
2018-02-19T01:26:56.600Z,67.30
2018-02-19T01:29:24.892Z,67.50
2018-02-19T01:31:53.156Z,67.90
2018-02-19T01:34:21.468Z,67.90
2018-02-19T01:36:48.978Z,67.90
2018-02-19T01:39:17.240Z,68.50
2018-02-19T01:41:44.790Z,68.30
2018-02-19T01:44:12.289Z,67.80
2018-02-19T01:46:39.817Z,67.40
2018-02-19T01:49:08.087Z,66.20
2018-02-19T01:51:35.621Z,66.70
2018-02-19T01:54:03.123Z,66.00
2018-02-19T01:56:31.416Z,67.10
2018-02-19T01:58:58.912Z,67.10
2018-02-19T02:01:26.423Z,67.00
2018-02-19T02:03:53.939Z,67.10
2018-02-19T02:06:21.460Z,67.10
2018-02-19T02:08:48.990Z,66.50
2018-02-19T02:11:17.259Z,66.80
2018-02-19T02:13:45.572Z,66.70
2018-02-19T02:16:13.081Z,66.70
2018-02-19T02:18:40.607Z,66.70
2018-02-19T02:21:08.103Z,66.70
2018-02-19T02:23:36.372Z,66.80
2018-02-19T02:26:03.905Z,66.80
2018-02-19T02:28:31.406Z,67.10
2018-02-19T02:30:59.696Z,66.80
2018-02-19T02:33:27.235Z,66.80
2018-02-19T02:35:55.496Z,67.30
2018-02-19T02:38:23.041Z,67.30
2018-02-19T02:40:50.572Z,67.60
2018-02-19T02:43:18.069Z,67.40
2018-02-19T02:45:45.599Z,67.60
2018-02-19T02:48:13.129Z,68.40
2018-02-19T02:50:40.616Z,67.80
2018-02-19T02:53:08.141Z,68.00
2018-02-19T02:55:35.667Z,67.80
2018-02-19T02:58:03.970Z,68.10
2018-02-19T03:00:31.478Z,68.00
2018-02-19T03:02:59.010Z,68.10
2018-02-19T03:05:26.512Z,68.10
2018-02-19T03:07:54.800Z,68.20
2018-02-19T03:10:22.325Z,68.10
2018-02-19T03:12:49.853Z,67.60
2018-02-19T03:15:17.344Z,67.70
2018-02-19T03:17:44.849Z,68.00
2018-02-19T03:20:12.382Z,68.00
2018-02-19T03:22:40.648Z,68.10
2018-02-19T03:25:08.959Z,68.00
2018-02-19T03:27:36.447Z,67.90
2018-02-19T03:30:03.969Z,67.60
2018-02-19T03:32:31.472Z,67.70
2018-02-19T03:34:58.967Z,68.00
2018-02-19T03:37:26.491Z,67.70
2018-02-19T03:39:54.004Z,67.70
2018-02-19T03:42:21.531Z,67.60
2018-02-19T03:44:49.794Z,67.90
2018-02-19T03:47:18.843Z,67.60
2018-02-19T03:49:46.357Z,67.60
2018-02-19T03:52:14.655Z,67.60
2018-02-19T03:54:42.152Z,67.60
2018-02-19T03:57:09.639Z,68.00
2018-02-19T03:59:37.951Z,68.10
2018-02-19T04:02:05.480Z,68.10
2018-02-19T04:04:33.759Z,68.30
2018-02-19T04:07:02.069Z,68.30
2018-02-19T04:09:29.587Z,68.30
2018-02-19T04:11:57.868Z,68.40
2018-02-19T04:14:26.156Z,68.30
2018-02-19T04:16:53.672Z,68.20
2018-02-19T04:19:21.202Z,68.20
2018-02-19T04:21:48.716Z,68.50
2018-02-19T04:24:16.972Z,68.80
2018-02-19T04:26:44.505Z,68.70
2018-02-19T04:29:12.011Z,68.80
2018-02-19T04:31:40.316Z,68.20
2018-02-19T04:34:07.815Z,68.20
2018-02-19T04:36:35.317Z,68.60
2018-02-19T04:39:02.856Z,67.20
2018-02-19T04:41:31.119Z,66.60
2018-02-19T04:43:58.653Z,66.50
2018-02-19T04:46:26.744Z,66.90
2018-02-19T04:48:54.268Z,67.30
2018-02-19T04:51:21.763Z,66.70
2018-02-19T04:53:50.048Z,68.20
2018-02-19T04:56:18.325Z,67.70
2018-02-19T04:58:46.621Z,68.10
2018-02-19T05:01:14.141Z,68.00
2018-02-19T05:03:41.673Z,68.30
2018-02-19T05:06:09.173Z,68.60
2018-02-19T05:08:37.448Z,68.00
2018-02-19T05:11:05.748Z,68.30
2018-02-19T05:13:33.248Z,68.40
2018-02-19T05:16:00.763Z,68.50
2018-02-19T05:18:28.325Z,68.50
2018-02-19T05:20:55.856Z,68.90
2018-02-19T05:23:24.111Z,69.60
2018-02-19T05:25:51.620Z,69.50
2018-02-19T05:28:19.166Z,69.00
2018-02-19T05:30:46.664Z,68.70
2018-02-19T05:33:14.188Z,68.20
2018-02-19T05:35:41.687Z,67.50
2018-02-19T05:38:09.229Z,67.80
2018-02-19T05:40:36.740Z,68.10
2018-02-19T05:43:04.284Z,68.70
2018-02-19T05:45:32.564Z,68.60
2018-02-19T05:48:00.828Z,68.70
2018-02-19T05:50:29.131Z,69.00
2018-02-19T05:52:56.632Z,68.90
2018-02-19T05:55:24.143Z,68.50
2018-02-19T05:57:51.725Z,68.40
2018-02-19T06:00:19.251Z,68.60
2018-02-19T06:02:47.516Z,68.80
2018-02-19T06:05:15.826Z,68.10
2018-02-19T06:07:43.360Z,68.10
2018-02-19T06:10:11.620Z,68.20
2018-02-19T06:12:39.877Z,67.80
2018-02-19T06:15:07.408Z,67.70
2018-02-19T06:17:34.929Z,67.80
2018-02-19T06:20:03.225Z,68.00
2018-02-19T06:22:30.736Z,68.00
2018-02-19T06:24:58.350Z,68.30
2018-02-19T06:27:25.845Z,68.40
2018-02-19T06:29:53.362Z,68.60
2018-02-19T06:32:20.856Z,69.20
2018-02-19T06:34:48.387Z,68.90
2018-02-19T06:37:15.883Z,68.70
2018-02-19T06:39:43.413Z,69.00
2018-02-19T06:42:10.940Z,69.60
2018-02-19T06:44:38.436Z,69.10
2018-02-19T06:47:05.960Z,68.40
2018-02-19T06:49:33.485Z,67.90
2018-02-19T06:52:01.767Z,68.10
2018-02-19T06:54:30.031Z,67.60
2018-02-19T06:56:58.324Z,67.90
2018-02-19T06:59:26.643Z,68.10
2018-02-19T07:01:54.156Z,68.00
2018-02-19T07:04:21.671Z,67.90
2018-02-19T07:06:49.173Z,67.40
2018-02-19T07:09:16.714Z,67.00
2018-02-19T07:11:44.987Z,67.60
2018-02-19T07:14:13.263Z,67.90
2018-02-19T07:16:41.561Z,66.80
2018-02-19T07:19:09.061Z,66.70
2018-02-19T07:21:36.586Z,66.80
2018-02-19T07:24:04.082Z,67.00
2018-02-19T07:26:31.608Z,67.50
2018-02-19T07:28:59.125Z,68.00
2018-02-19T07:31:27.413Z,68.50
2018-02-19T07:33:55.667Z,68.80
2018-02-19T07:36:23.166Z,67.80
2018-02-19T07:38:50.712Z,68.20
2018-02-19T07:41:18.269Z,67.60
2018-02-19T07:43:45.783Z,67.40
2018-02-19T07:46:13.290Z,67.60
2018-02-19T07:48:40.820Z,66.90
2018-02-19T07:51:09.092Z,67.10
2018-02-19T07:53:36.616Z,67.10
2018-02-19T07:56:04.139Z,66.90
2018-02-19T07:58:31.632Z,67.10
2018-02-19T08:00:59.167Z,67.50
2018-02-19T08:03:26.735Z,66.90
2018-02-19T08:05:54.295Z,66.90
2018-02-19T08:08:21.808Z,66.00
2018-02-19T08:10:50.094Z,66.60
2018-02-19T08:13:17.635Z,66.60
2018-02-19T08:15:45.920Z,66.50
2018-02-19T08:18:14.257Z,66.90
2018-02-19T08:20:41.732Z,67.60
2018-02-19T08:23:09.252Z,67.10
2018-02-19T08:25:36.768Z,67.20
2018-02-19T08:28:05.088Z,66.40
2018-02-19T08:30:32.592Z,66.40
2018-02-19T08:33:00.098Z,66.90
2018-02-19T08:35:27.632Z,67.20
2018-02-19T08:37:55.130Z,67.10
2018-02-19T08:40:22.663Z,67.20
2018-02-19T08:42:50.160Z,67.70
2018-02-19T08:45:17.679Z,67.50
2018-02-19T08:47:45.170Z,67.20
2018-02-19T08:50:12.689Z,67.40
2018-02-19T08:52:40.186Z,67.20
2018-02-19T08:55:07.709Z,67.20
2018-02-19T08:57:35.218Z,66.90
2018-02-19T09:00:03.512Z,67.00
2018-02-19T09:02:31.802Z,67.70
2018-02-19T09:04:59.312Z,67.60
2018-02-19T09:07:26.861Z,67.30
2018-02-19T09:09:54.379Z,67.20
2018-02-19T09:12:21.900Z,67.20
2018-02-19T09:14:50.195Z,67.00
2018-02-19T09:17:18.486Z,67.40
2018-02-19T09:19:45.991Z,67.40
2018-02-19T09:22:13.525Z,66.80
2018-02-19T09:24:41.049Z,66.00
2018-02-19T09:27:08.553Z,65.90
2018-02-19T09:29:36.094Z,66.40
2018-02-19T09:32:03.601Z,66.80
2018-02-19T09:34:32.468Z,67.30
2018-02-19T09:36:59.972Z,67.30
2018-02-19T09:39:27.495Z,66.40
2018-02-19T09:41:55.004Z,66.30
2018-02-19T09:44:22.555Z,66.60
2018-02-19T09:46:50.069Z,66.40
2018-02-19T09:49:17.663Z,66.10
2018-02-19T09:51:45.186Z,65.60
2018-02-19T09:54:14.198Z,65.10
2018-02-19T09:56:42.498Z,65.10
2018-02-19T09:59:09.997Z,65.00
2018-02-19T10:01:37.532Z,64.60
2018-02-19T10:04:05.022Z,64.40
2018-02-19T10:06:33.303Z,64.10
2018-02-19T10:09:00.804Z,64.10
2018-02-19T10:11:28.303Z,63.80
2018-02-19T10:13:55.832Z,64.00
2018-02-19T10:16:23.332Z,63.60
2018-02-19T10:18:50.855Z,63.30
2018-02-19T10:21:18.360Z,63.40
2018-02-19T10:23:46.664Z,62.80
2018-02-19T10:26:14.157Z,62.80
2018-02-19T10:28:41.684Z,62.50
2018-02-19T10:31:09.179Z,62.90
2018-02-19T10:33:36.685Z,62.50
2018-02-19T10:36:04.209Z,62.10
2018-02-19T10:38:31.709Z,62.50
2018-02-19T10:40:59.289Z,62.10
2018-02-19T10:43:26.816Z,61.70
2018-02-19T10:45:54.357Z,62.00
2018-02-19T10:48:22.628Z,62.20
2018-02-19T10:50:50.925Z,62.00
2018-02-19T10:53:18.453Z,61.90
2018-02-19T10:55:45.968Z,61.80
2018-02-19T10:58:13.497Z,61.60
2018-02-19T11:00:46.004Z,61.70
2018-02-19T11:03:13.514Z,61.20
2018-02-19T11:05:41.785Z,61.70
2018-02-19T11:08:10.071Z,61.80
2018-02-19T11:10:38.347Z,61.90
2018-02-19T11:13:06.666Z,61.60
2018-02-19T11:15:34.172Z,61.60
2018-02-19T11:18:02.468Z,61.30
2018-02-19T11:20:29.984Z,61.30
2018-02-19T11:22:57.549Z,61.10
2018-02-19T11:25:25.840Z,60.50
2018-02-19T11:27:54.107Z,61.00
2018-02-19T11:30:22.404Z,61.40
2018-02-19T11:32:49.919Z,61.30
2018-02-19T11:35:17.447Z,60.90
2018-02-19T11:37:44.944Z,60.10
2018-02-19T11:40:12.481Z,60.50
2018-02-19T11:42:39.991Z,60.70
2018-02-19T11:45:07.489Z,60.60
2018-02-19T11:47:35.037Z,60.80
2018-02-19T11:50:02.545Z,60.40
2018-02-19T11:52:30.846Z,60.30
2018-02-19T11:54:58.362Z,60.30
2018-02-19T11:57:25.864Z,60.30
2018-02-19T11:59:53.412Z,60.10
2018-02-19T12:02:21.008Z,59.60
2018-02-19T12:04:48.505Z,60.20
2018-02-19T12:07:16.772Z,62.00
2018-02-19T12:09:44.315Z,61.20
2018-02-19T12:12:11.808Z,61.60
2018-02-19T12:14:40.119Z,60.90
2018-02-19T12:17:07.684Z,60.90
2018-02-19T12:19:35.223Z,59.90
2018-02-19T12:22:02.727Z,60.90
2018-02-19T12:24:30.242Z,61.40
2018-02-19T12:26:57.775Z,61.80
2018-02-19T12:29:26.050Z,61.10
2018-02-19T12:31:54.364Z,60.50
2018-02-19T12:34:21.938Z,60.50
2018-02-19T12:36:49.417Z,60.40
2018-02-19T12:39:16.946Z,60.50
2018-02-19T12:41:44.540Z,60.20
2018-02-19T12:44:12.032Z,60.50
2018-02-19T12:46:39.543Z,60.50
2018-02-19T12:49:07.099Z,60.50
2018-02-19T12:51:34.605Z,60.30
2018-02-19T12:54:02.169Z,60.20
2018-02-19T12:56:29.693Z,59.90
2018-02-19T12:58:58.012Z,60.40
2018-02-19T13:01:25.529Z,60.30
2018-02-19T13:03:53.842Z,60.60
2018-02-19T13:06:21.400Z,60.50
2018-02-19T13:08:48.958Z,59.90
2018-02-19T13:11:17.240Z,59.50
2018-02-19T13:13:44.737Z,59.50
2018-02-19T13:16:12.287Z,60.10
2018-02-19T13:18:40.581Z,61.20
2018-02-19T13:21:08.149Z,60.40
2018-02-19T13:23:35.648Z,59.80
2018-02-19T13:26:03.179Z,60.10
2018-02-19T13:28:31.449Z,61.90
2018-02-19T13:30:59.749Z,61.10
2018-02-19T13:33:27.252Z,61.00
2018-02-19T13:35:56.278Z,60.10
2018-02-19T13:38:24.580Z,60.40
2018-02-19T13:40:52.093Z,60.30
2018-02-19T13:43:19.620Z,60.40
2018-02-19T13:45:47.127Z,60.10
2018-02-19T13:48:14.694Z,60.20
2018-02-19T13:50:42.196Z,60.20
2018-02-19T13:53:09.729Z,60.10
2018-02-19T13:55:37.232Z,60.10
2018-02-19T13:58:04.779Z,60.00
2018-02-19T14:00:32.313Z,59.90
2018-02-19T14:02:59.847Z,59.90
2018-02-19T14:05:27.379Z,59.90
2018-02-19T14:07:55.653Z,59.90
2018-02-19T14:10:23.948Z,60.10
2018-02-19T14:12:51.447Z,60.00
2018-02-19T14:15:18.990Z,60.30
2018-02-19T14:17:46.920Z,60.40
2018-02-19T14:20:15.212Z,61.00
2018-02-19T14:22:42.785Z,60.90
2018-02-19T14:25:10.329Z,60.70
2018-02-19T14:27:37.849Z,60.90
2018-02-19T14:30:05.356Z,60.80
2018-02-19T14:32:32.881Z,60.80
2018-02-19T14:35:01.167Z,60.80
2018-02-19T14:37:28.720Z,60.80
2018-02-19T14:39:56.988Z,60.90
2018-02-19T14:42:25.284Z,61.10
2018-02-19T14:44:52.783Z,61.00
2018-02-19T14:47:21.904Z,61.80
2018-02-19T14:49:49.448Z,61.70
2018-02-19T14:52:16.957Z,62.50
2018-02-19T14:54:44.486Z,62.60
2018-02-19T14:57:12.767Z,62.50
2018-02-19T14:59:41.059Z,62.30
2018-02-19T15:02:08.559Z,62.20
2018-02-19T15:04:36.076Z,62.10
2018-02-19T15:07:03.596Z,62.20
2018-02-19T15:09:31.122Z,62.40
2018-02-19T15:11:58.652Z,62.30
2018-02-19T15:14:26.166Z,62.30
2018-02-19T15:16:53.705Z,62.40
2018-02-19T15:19:21.236Z,62.60
2018-02-19T15:21:48.799Z,62.60
2018-02-19T15:24:16.306Z,62.60
2018-02-19T15:26:44.582Z,62.80
2018-02-19T15:29:12.132Z,62.70
2018-02-19T15:31:39.624Z,62.70
2018-02-19T15:34:07.161Z,62.60
2018-02-19T15:36:35.441Z,62.90
2018-02-19T15:39:03.745Z,63.00
2018-02-19T15:41:31.248Z,62.90
2018-02-19T15:43:58.788Z,62.80
2018-02-19T15:46:26.308Z,62.90
2018-02-19T15:48:53.847Z,62.80
2018-02-19T15:51:22.120Z,62.90
2018-02-19T15:53:50.452Z,62.70
2018-02-19T15:56:17.957Z,62.50
2018-02-19T15:58:46.256Z,62.70
2018-02-19T16:01:13.792Z,62.60
2018-02-19T16:03:42.132Z,62.90
2018-02-19T16:06:09.685Z,62.90
2018-02-19T16:08:37.200Z,63.00
2018-02-19T16:11:04.726Z,63.30
2018-02-19T16:13:32.233Z,63.30
2018-02-19T16:15:59.817Z,63.60
2018-02-19T16:18:27.327Z,63.80
2018-02-19T16:20:54.880Z,63.90
2018-02-19T16:23:22.516Z,64.00
2018-02-19T16:25:50.828Z,64.10
2018-02-19T16:28:18.382Z,64.10
2018-02-19T16:30:45.910Z,64.00
2018-02-19T16:33:13.451Z,64.30
2018-02-19T16:35:40.946Z,64.00
2018-02-19T16:38:09.279Z,64.00
2018-02-19T16:40:36.807Z,64.00
2018-02-19T16:43:04.353Z,63.70
2018-02-19T16:45:31.844Z,64.00
2018-02-19T16:47:59.406Z,64.40
2018-02-19T16:50:26.943Z,64.30
2018-02-19T16:52:54.452Z,64.20
2018-02-19T16:55:21.980Z,64.40
2018-02-19T16:57:49.489Z,64.20
2018-02-19T17:00:17.041Z,64.10
2018-02-19T17:02:45.345Z,64.30
2018-02-19T17:05:12.875Z,64.20
2018-02-19T17:07:41.143Z,64.00
2018-02-19T17:10:09.462Z,63.70
2018-02-19T17:12:36.974Z,64.50
2018-02-19T17:15:05.247Z,63.70
2018-02-19T17:17:33.543Z,63.50
2018-02-19T17:20:01.081Z,63.50
2018-02-19T17:22:29.406Z,63.70
2018-02-19T17:24:56.914Z,63.10
2018-02-19T17:27:25.208Z,62.90
2018-02-19T17:29:52.705Z,62.80
2018-02-19T17:32:20.250Z,62.40
2018-02-19T17:34:47.763Z,62.90
2018-02-19T17:37:16.095Z,63.60
2018-02-19T17:39:43.625Z,63.60
2018-02-19T17:42:11.145Z,63.80
2018-02-19T17:44:38.692Z,64.10
2018-02-19T17:47:06.195Z,64.30
2018-02-19T17:49:33.736Z,64.30
2018-02-19T17:52:02.024Z,64.70
2018-02-19T17:54:30.351Z,64.80
2018-02-19T17:56:57.893Z,64.80
2018-02-19T17:59:25.395Z,64.80
2018-02-19T18:01:52.938Z,64.80
2018-02-19T18:04:20.452Z,65.20
2018-02-19T18:06:47.987Z,65.40
2018-02-19T18:09:15.492Z,65.40
2018-02-19T18:11:43.028Z,65.60
2018-02-19T18:14:10.583Z,65.90
2018-02-19T18:16:38.116Z,65.90
2018-02-19T18:19:06.415Z,66.20
2018-02-19T18:21:33.933Z,66.20
2018-02-19T18:24:01.479Z,66.10
2018-02-19T18:26:28.989Z,66.20
2018-02-19T18:28:56.517Z,66.10
2018-02-19T18:31:24.790Z,66.30
2018-02-19T18:33:53.095Z,66.50
2018-02-19T18:36:20.595Z,66.40
2018-02-19T18:38:48.112Z,66.00
2018-02-19T18:41:15.680Z,66.00
2018-02-19T18:43:43.188Z,66.00
2018-02-19T18:46:11.513Z,66.00
2018-02-19T18:48:39.020Z,65.90
2018-02-19T18:51:06.585Z,66.30
2018-02-19T18:53:34.864Z,66.50
2018-02-19T18:56:03.153Z,66.80
2018-02-19T18:58:30.688Z,66.80
2018-02-19T19:00:58.214Z,66.80
2018-02-19T19:03:25.757Z,66.90
2018-02-19T19:05:53.287Z,66.90
2018-02-19T19:08:32.755Z,66.90
2018-02-19T19:11:00.269Z,67.10
2018-02-19T19:13:27.821Z,67.20
2018-02-19T19:15:56.119Z,67.40
2018-02-19T19:18:23.656Z,67.40
2018-02-19T19:20:52.029Z,67.30
2018-02-19T19:23:20.450Z,68.20
2018-02-19T19:25:48.000Z,67.30
2018-02-19T19:28:15.517Z,67.40
2018-02-19T19:30:43.059Z,67.50
2018-02-19T19:33:10.583Z,68.40
2018-02-19T19:35:38.151Z,67.60
2018-02-19T19:38:05.667Z,67.50
2018-02-19T19:40:33.982Z,67.60
2018-02-19T19:43:01.498Z,67.60
2018-02-19T19:45:29.817Z,67.70
2018-02-19T19:47:57.385Z,67.70
2018-02-19T19:50:24.922Z,67.70
2018-02-19T19:52:52.466Z,67.90
2018-02-19T19:55:20.119Z,68.00
2018-02-19T19:57:47.685Z,68.00
2018-02-19T20:00:15.183Z,68.20
2018-02-19T20:02:42.717Z,68.20
2018-02-19T20:05:10.265Z,68.40
2018-02-19T20:07:37.825Z,68.50
2018-02-19T20:10:05.381Z,68.30
2018-02-19T20:12:32.922Z,68.30
2018-02-19T20:15:01.260Z,68.50
2018-02-19T20:17:28.766Z,68.50
2018-02-19T20:19:56.314Z,68.70
2018-02-19T20:22:24.607Z,68.80
2018-02-19T20:24:52.148Z,68.90
2018-02-19T20:27:20.450Z,69.10
2018-02-19T20:29:48.001Z,69.10
2018-02-19T20:32:15.569Z,69.10
2018-02-19T20:34:43.185Z,69.10
2018-02-19T20:37:10.698Z,69.00
2018-02-19T20:39:38.290Z,69.00
2018-02-19T20:42:05.834Z,69.00
2018-02-19T20:44:33.362Z,69.00
2018-02-19T20:47:00.917Z,69.20
2018-02-19T20:49:28.452Z,69.20
2018-02-19T20:51:56.019Z,69.20
2018-02-19T20:54:23.549Z,69.20
2018-02-19T20:56:51.851Z,69.10
2018-02-19T20:59:19.375Z,69.10
2018-02-19T21:01:46.902Z,69.90
2018-02-19T21:04:14.437Z,69.00
2018-02-19T21:06:41.962Z,69.10
2018-02-19T21:09:10.258Z,68.80
2018-02-19T21:11:37.808Z,68.80
2018-02-19T21:14:06.115Z,68.80
2018-02-19T21:16:33.637Z,68.70
2018-02-19T21:19:01.961Z,68.90
2018-02-19T21:21:29.496Z,68.90
2018-02-19T21:23:57.084Z,69.00
2018-02-19T21:26:24.616Z,69.10
2018-02-19T21:28:52.134Z,69.10
2018-02-19T21:31:20.455Z,69.20
2018-02-19T21:33:47.960Z,69.20
2018-02-19T21:36:15.498Z,69.20
2018-02-19T21:38:43.034Z,69.20
2018-02-19T21:41:10.553Z,69.00
2018-02-19T21:43:38.828Z,69.10
2018-02-19T21:46:07.147Z,69.00
2018-02-19T21:48:34.660Z,69.00
2018-02-19T21:51:02.929Z,69.10
2018-02-19T21:53:31.226Z,69.30
2018-02-19T21:55:58.819Z,69.40
2018-02-19T21:58:26.384Z,69.50
2018-02-19T22:00:53.886Z,69.60
2018-02-19T22:03:22.208Z,70.00
2018-02-19T22:05:49.760Z,70.00
2018-02-19T22:08:17.323Z,70.10
2018-02-19T22:10:44.855Z,70.10
2018-02-19T22:13:12.389Z,69.80
2018-02-19T22:15:41.630Z,70.00
2018-02-19T22:18:09.159Z,70.00
2018-02-19T22:20:37.476Z,70.20
2018-02-19T22:23:04.994Z,70.10
2018-02-19T22:25:32.553Z,70.30
2018-02-19T22:28:00.860Z,70.50
2018-02-19T22:30:28.384Z,70.50
2018-02-19T22:32:56.667Z,70.70
2018-02-19T22:35:24.194Z,70.70
2018-02-19T22:37:51.706Z,70.60
2018-02-19T22:40:19.243Z,71.50
2018-02-19T22:42:46.784Z,70.70
2018-02-19T22:45:15.111Z,70.80
2018-02-19T22:47:42.666Z,70.80
2018-02-19T22:50:10.179Z,71.00
2018-02-19T22:52:38.452Z,71.10
2018-02-19T22:55:06.786Z,70.90
2018-02-19T22:57:34.321Z,70.90
2018-02-19T23:00:01.831Z,70.90
2018-02-19T23:02:29.373Z,70.90
2018-02-19T23:04:57.065Z,71.00
2018-02-19T23:07:25.335Z,71.10
2018-02-19T23:09:53.655Z,70.70
2018-02-19T23:12:21.190Z,70.70
2018-02-19T23:14:48.746Z,70.70
2018-02-19T23:17:16.287Z,70.80
2018-02-19T23:19:44.618Z,70.80
2018-02-19T23:22:12.148Z,70.80
2018-02-19T23:24:39.649Z,70.60
2018-02-19T23:27:07.192Z,70.20
2018-02-19T23:29:34.697Z,70.50
2018-02-19T23:32:03.035Z,69.70
2018-02-19T23:34:30.579Z,69.60
2018-02-19T23:36:58.087Z,70.00
2018-02-19T23:39:26.392Z,70.60
2018-02-19T23:41:53.886Z,70.60
2018-02-19T23:44:21.410Z,70.70
2018-02-19T23:46:48.919Z,70.90
2018-02-19T23:49:16.467Z,70.60
2018-02-19T23:51:43.979Z,70.40
2018-02-19T23:54:19.304Z,70.30
2018-02-19T23:56:46.831Z,70.20
2018-02-19T23:59:14.327Z,69.70
